M/V Lavelle Devall — WCW4022 — position and weather

sailwx.info

Track history (hours):
 
Tides and Currents Weather Stations Pressure Air Temp Water Temp Dewpoint Dewpoint Depression Visibility Wind Speed Wind Dir Waves Ship Positions

M/V Lavelle Devall

Owner: LAVELLE DEVALL INC, Sulphur, LA. More information available from US FCC via Universal Licensing System and Coast Guard Vessel Documentation Center.

Last reported at 2017-Sep-21 16:01 UTC. Time now 2017-Sep-21 16:13 UTC.
Position N 29°42' W 094°60'.

Length 18 m.

Type: Towing. MMSI: 366972290.

Date/timePositionNaut miles runAvg speedWind from/ knotsBaromVisibWave heightAir tempDewpointWater temp
2017-Sep-21 16:01N 29°42' W 094°60'3 5.9
2017-Sep-21 15:29N 29°44' W 095°03'3 5.9
2017-Sep-21 14:59N 29°46' W 095°05'0 0.5
2017-Sep-21 14:01N 29°45' W 095°06'1 6.1
2017-Sep-21 13:52N 29°46' W 095°05'2 6.6
2017-Sep-21 13:31N 29°44' W 095°03'2 0.2
2017-Sep-21 06:41N 29°44' W 095°01'1 4.2
2017-Sep-21 06:28N 29°44' W 095°02'3 6.4
2017-Sep-21 05:59N 29°46' W 095°05'3 6.6
2017-Sep-21 05:30N 29°44' W 095°09'6 5.2
2017-Sep-21 04:16N 29°44' W 095°16'0 0.1
2017-Sep-21 00:52N 29°43' W 095°16'2 5.3
2017-Sep-21 00:27N 29°43' W 095°14'3 6.4
2017-Sep-21 00:00N 29°45' W 095°11'3 6.4
2017-Sep-20 23:28N 29°44' W 095°07'2 1.3
2017-Sep-20 21:53N 29°46' W 095°05'2 5.3
2017-Sep-20 21:30N 29°44' W 095°07'3 6.0
2017-Sep-20 20:58N 29°45' W 095°11'3 4.9
2017-Sep-20 20:25N 29°43' W 095°13'2 5.3
2017-Sep-20 19:58N 29°43' W 095°16'0 0.0
2017-Sep-20 08:22N 29°43' W 095°16'2 4.9
2017-Sep-20 07:54N 29°44' W 095°14'3 6.2
2017-Sep-20 07:27N 29°45' W 095°11'3 6.3
2017-Sep-20 06:57N 29°44' W 095°07'3 6.0
2017-Sep-20 06:30N 29°46' W 095°04'3 6.0
2017-Sep-20 06:00N 29°44' W 095°02'3 5.7
2017-Sep-20 05:30N 29°42' W 094°60'3 6.3
2017-Sep-20 05:00N 29°39' W 094°58'3 6.8
2017-Sep-20 04:30N 29°36' W 094°57'4 7.0
2017-Sep-20 04:00N 29°33' W 094°54'4 0.1
2017-Sep-18 16:24N 29°30' W 094°52'2 6.0
2017-Sep-18 16:00N 29°32' W 094°53'3 5.8
2017-Sep-18 15:30N 29°34' W 094°55'3 6.0
2017-Sep-18 15:00N 29°36' W 094°57'3 6.0
2017-Sep-18 14:30N 29°39' W 094°58'3 6.0
2017-Sep-18 14:00N 29°42' W 095°00'3 5.2
2017-Sep-18 13:30N 29°44' W 095°02'2 4.2
2017-Sep-18 12:59N 29°45' W 095°04'2 1.5
2017-Sep-18 11:43N 29°46' W 095°06'1 6.0
2017-Sep-18 11:29N 29°46' W 095°05'3 6.6
2017-Sep-18 11:00N 29°44' W 095°02'0 0.0
2017-Sep-18 04:51N 29°44' W 095°01'2 6.7
2017-Sep-18 04:30N 29°45' W 095°04'2 4.7
2017-Sep-18 04:00N 29°44' W 095°06'4 1.3
2017-Sep-18 00:55N 29°45' W 095°11'2 5.4
2017-Sep-18 00:28N 29°44' W 095°09'3 4.9
2017-Sep-17 23:53N 29°45' W 095°06'2 4.2
2017-Sep-17 23:31N 29°45' W 095°04'3 0.3
2017-Sep-17 14:43N 29°44' W 095°01'1 6.3
2017-Sep-17 14:30N 29°44' W 095°03'3 0.5
2017-Sep-17 08:06N 29°46' W 095°05'3 4.4
2017-Sep-17 07:20N 29°44' W 095°09'2 0.2
2017-Sep-16 18:15N 29°45' W 095°11'1 5.0
2017-Sep-16 18:00N 29°45' W 095°10'3 4.6
2017-Sep-16 17:24N 29°44' W 095°07'2 1.7
2017-Sep-16 16:20N 29°46' W 095°06'1 0.1
2017-Sep-16 04:19N 29°46' W 095°05'2 5.3
2017-Sep-16 04:00N 29°45' W 095°04'3 2.8
2017-Sep-16 03:06N 29°44' W 095°01'1 5.6
2017-Sep-16 02:56N 29°44' W 095°02'3 6.8
2017-Sep-16 02:29N 29°46' W 095°05'0 0.3
2017-Sep-16 01:12N 29°46' W 095°05'1 4.8
2017-Sep-16 00:57N 29°45' W 095°06'3 5.4
2017-Sep-16 00:29N 29°44' W 095°09'6 4.5
2017-Sep-15 23:03N 29°43' W 095°16'0 1.5
2017-Sep-15 23:00N 29°43' W 095°16'0 0.1
2017-Sep-15 21:08N 29°43' W 095°16'3 5.1
2017-Sep-15 20:38N 29°44' W 095°13'2 6.3
2017-Sep-15 20:17N 29°45' W 095°11'2 6.5
2017-Sep-15 19:59N 29°44' W 095°09'3 6.1
2017-Sep-15 19:27N 29°45' W 095°06'0 0.0
2017-Sep-15 04:26N 29°46' W 095°05'3 5.7
2017-Sep-15 03:53N 29°44' W 095°08'2 6.2
2017-Sep-15 03:28N 29°45' W 095°11'1 0.2
2017-Sep-15 00:54N 29°45' W 095°11'2 5.8
2017-Sep-15 00:29N 29°44' W 095°08'3 5.4
2017-Sep-14 23:58N 29°46' W 095°05'2 5.1
2017-Sep-14 23:30N 29°44' W 095°03'2 1.1
2017-Sep-14 21:50N 29°44' W 095°01'2 6.5
2017-Sep-14 21:28N 29°45' W 095°04'2 1.4
2017-Sep-14 19:53N 29°46' W 095°06'1 3.2
2017-Sep-14 19:30N 29°46' W 095°05'3 6.2
2017-Sep-14 18:59N 29°44' W 095°02'3 5.6
2017-Sep-14 18:30N 29°42' W 094°60'3 6.3
2017-Sep-14 18:00N 29°39' W 094°58'3 6.8
2017-Sep-14 17:30N 29°36' W 094°57'3 7.0
2017-Sep-14 17:00N 29°33' W 094°54'4 0.2
2017-Sep-13 20:49N 29°29' W 094°52'2 7.0
2017-Sep-13 20:30N 29°31' W 094°53'3 6.7
2017-Sep-13 20:00N 29°34' W 094°55'3 6.5
2017-Sep-13 19:30N 29°37' W 094°57'3 6.6
2017-Sep-13 19:00N 29°40' W 094°58'3 6.6
2017-Sep-13 18:31N 29°42' W 095°01'3 6.0
2017-Sep-13 18:00N 29°44' W 095°03'2 0.3
2017-Sep-13 10:21N 29°46' W 095°05'1 0.2
2017-Sep-13 05:53N 29°46' W 095°06'2 5.2
2017-Sep-13 05:30N 29°45' W 095°04'3 5.7
2017-Sep-13 05:01N 29°44' W 095°01'0 0.6
2017-Sep-13 04:30N 29°44' W 095°02'3 6.1
2017-Sep-13 03:59N 29°46' W 095°05'1 0.6
2017-Sep-13 02:49N 29°46' W 095°05'2 6.0
2017-Sep-13 02:30N 29°44' W 095°07'7 4.9
2017-Sep-13 01:05N 29°43' W 095°15'1 5.8
2017-Sep-13 00:57N 29°44' W 095°14'2 5.3
2017-Sep-13 00:29N 29°45' W 095°11'3 5.6
2017-Sep-13 00:00N 29°44' W 095°08'3 4.6
2017-Sep-12 23:27N 29°45' W 095°06'1 0.3
2017-Sep-12 21:26N 29°46' W 095°05'2 4.9
2017-Sep-12 21:00N 29°45' W 095°04'2 4.8
2017-Sep-12 20:30N 29°43' W 095°01'2 4.3
2017-Sep-12 20:00N 29°42' W 094°60'2 4.8
2017-Sep-12 19:30N 29°40' W 094°58'3 5.6
2017-Sep-12 19:00N 29°37' W 094°57'3 5.7
2017-Sep-12 18:30N 29°34' W 094°56'3 5.7
2017-Sep-12 18:00N 29°32' W 094°54'  
Track history (hours):
 
Tides and Currents Weather Stations Pressure Air Temp Water Temp Dewpoint Dewpoint Depression Visibility Wind Speed Wind Dir Waves Ship Positions

M/V Lavelle Devall

Owner: LAVELLE DEVALL INC, Sulphur, LA. More information available from US FCC via Universal Licensing System and Coast Guard Vessel Documentation Center.

Last reported at 2017-Sep-21 16:01 UTC. Time now 2017-Sep-21 16:13 UTC.
Position N 29°42' W 094°60'.

Length 18 m.

Type: Towing. MMSI: 366972290.

Date/timePositionNaut miles runAvg speedWind from/ knotsBaromVisibWave heightAir tempDewpointWater temp
2017-Sep-21 16:01N 29°42' W 094°60'3 5.9
2017-Sep-21 15:29N 29°44' W 095°03'3 5.9
2017-Sep-21 14:59N 29°46' W 095°05'0 0.5
2017-Sep-21 14:01N 29°45' W 095°06'1 6.1
2017-Sep-21 13:52N 29°46' W 095°05'2 6.6
2017-Sep-21 13:31N 29°44' W 095°03'2 0.2
2017-Sep-21 06:41N 29°44' W 095°01'1 4.2
2017-Sep-21 06:28N 29°44' W 095°02'3 6.4
2017-Sep-21 05:59N 29°46' W 095°05'3 6.6
2017-Sep-21 05:30N 29°44' W 095°09'6 5.2
2017-Sep-21 04:16N 29°44' W 095°16'0 0.1
2017-Sep-21 00:52N 29°43' W 095°16'2 5.3
2017-Sep-21 00:27N 29°43' W 095°14'3 6.4
2017-Sep-21 00:00N 29°45' W 095°11'3 6.4
2017-Sep-20 23:28N 29°44' W 095°07'2 1.3
2017-Sep-20 21:53N 29°46' W 095°05'2 5.3
2017-Sep-20 21:30N 29°44' W 095°07'3 6.0
2017-Sep-20 20:58N 29°45' W 095°11'3 4.9
2017-Sep-20 20:25N 29°43' W 095°13'2 5.3
2017-Sep-20 19:58N 29°43' W 095°16'0 0.0
2017-Sep-20 08:22N 29°43' W 095°16'2 4.9
2017-Sep-20 07:54N 29°44' W 095°14'3 6.2
2017-Sep-20 07:27N 29°45' W 095°11'3 6.3
2017-Sep-20 06:57N 29°44' W 095°07'3 6.0
2017-Sep-20 06:30N 29°46' W 095°04'3 6.0
2017-Sep-20 06:00N 29°44' W 095°02'3 5.7
2017-Sep-20 05:30N 29°42' W 094°60'3 6.3
2017-Sep-20 05:00N 29°39' W 094°58'3 6.8
2017-Sep-20 04:30N 29°36' W 094°57'4 7.0
2017-Sep-20 04:00N 29°33' W 094°54'4 0.1
2017-Sep-18 16:24N 29°30' W 094°52'2 6.0
2017-Sep-18 16:00N 29°32' W 094°53'3 5.8
2017-Sep-18 15:30N 29°34' W 094°55'3 6.0
2017-Sep-18 15:00N 29°36' W 094°57'3 6.0
2017-Sep-18 14:30N 29°39' W 094°58'3 6.0
2017-Sep-18 14:00N 29°42' W 095°00'3 5.2
2017-Sep-18 13:30N 29°44' W 095°02'2 4.2
2017-Sep-18 12:59N 29°45' W 095°04'2 1.5
2017-Sep-18 11:43N 29°46' W 095°06'1 6.0
2017-Sep-18 11:29N 29°46' W 095°05'3 6.6
2017-Sep-18 11:00N 29°44' W 095°02'0 0.0
2017-Sep-18 04:51N 29°44' W 095°01'2 6.7
2017-Sep-18 04:30N 29°45' W 095°04'2 4.7
2017-Sep-18 04:00N 29°44' W 095°06'4 1.3
2017-Sep-18 00:55N 29°45' W 095°11'2 5.4
2017-Sep-18 00:28N 29°44' W 095°09'3 4.9
2017-Sep-17 23:53N 29°45' W 095°06'2 4.2
2017-Sep-17 23:31N 29°45' W 095°04'3 0.3
2017-Sep-17 14:43N 29°44' W 095°01'1 6.3
2017-Sep-17 14:30N 29°44' W 095°03'3 0.5
2017-Sep-17 08:06N 29°46' W 095°05'3 4.4
2017-Sep-17 07:20N 29°44' W 095°09'2 0.2
2017-Sep-16 18:15N 29°45' W 095°11'1 5.0
2017-Sep-16 18:00N 29°45' W 095°10'3 4.6
2017-Sep-16 17:24N 29°44' W 095°07'2 1.7
2017-Sep-16 16:20N 29°46' W 095°06'1 0.1
2017-Sep-16 04:19N 29°46' W 095°05'2 5.3
2017-Sep-16 04:00N 29°45' W 095°04'3 2.8
2017-Sep-16 03:06N 29°44' W 095°01'1 5.6
2017-Sep-16 02:56N 29°44' W 095°02'3 6.8
2017-Sep-16 02:29N 29°46' W 095°05'0 0.3
2017-Sep-16 01:12N 29°46' W 095°05'1 4.8
2017-Sep-16 00:57N 29°45' W 095°06'3 5.4
2017-Sep-16 00:29N 29°44' W 095°09'6 4.5
2017-Sep-15 23:03N 29°43' W 095°16'0 1.5
2017-Sep-15 23:00N 29°43' W 095°16'0 0.1
2017-Sep-15 21:08N 29°43' W 095°16'3 5.1
2017-Sep-15 20:38N 29°44' W 095°13'2 6.3
2017-Sep-15 20:17N 29°45' W 095°11'2 6.5
2017-Sep-15 19:59N 29°44' W 095°09'3 6.1
2017-Sep-15 19:27N 29°45' W 095°06'0 0.0
2017-Sep-15 04:26N 29°46' W 095°05'3 5.7
2017-Sep-15 03:53N 29°44' W 095°08'2 6.2
2017-Sep-15 03:28N 29°45' W 095°11'1 0.2
2017-Sep-15 00:54N 29°45' W 095°11'2 5.8
2017-Sep-15 00:29N 29°44' W 095°08'3 5.4
2017-Sep-14 23:58N 29°46' W 095°05'2 5.1
2017-Sep-14 23:30N 29°44' W 095°03'2 1.1
2017-Sep-14 21:50N 29°44' W 095°01'2 6.5
2017-Sep-14 21:28N 29°45' W 095°04'2 1.4
2017-Sep-14 19:53N 29°46' W 095°06'1 3.2
2017-Sep-14 19:30N 29°46' W 095°05'3 6.2
2017-Sep-14 18:59N 29°44' W 095°02'3 5.6
2017-Sep-14 18:30N 29°42' W 094°60'3 6.3
2017-Sep-14 18:00N 29°39' W 094°58'3 6.8
2017-Sep-14 17:30N 29°36' W 094°57'3 7.0
2017-Sep-14 17:00N 29°33' W 094°54'4 0.2
2017-Sep-13 20:49N 29°29' W 094°52'2 7.0
2017-Sep-13 20:30N 29°31' W 094°53'3 6.7
2017-Sep-13 20:00N 29°34' W 094°55'3 6.5
2017-Sep-13 19:30N 29°37' W 094°57'3 6.6
2017-Sep-13 19:00N 29°40' W 094°58'3 6.6
2017-Sep-13 18:31N 29°42' W 095°01'3 6.0
2017-Sep-13 18:00N 29°44' W 095°03'2 0.3
2017-Sep-13 10:21N 29°46' W 095°05'1 0.2
2017-Sep-13 05:53N 29°46' W 095°06'2 5.2
2017-Sep-13 05:30N 29°45' W 095°04'3 5.7
2017-Sep-13 05:01N 29°44' W 095°01'0 0.6
2017-Sep-13 04:30N 29°44' W 095°02'3 6.1
2017-Sep-13 03:59N 29°46' W 095°05'1 0.6
2017-Sep-13 02:49N 29°46' W 095°05'2 6.0
2017-Sep-13 02:30N 29°44' W 095°07'7 4.9
2017-Sep-13 01:05N 29°43' W 095°15'1 5.8
2017-Sep-13 00:57N 29°44' W 095°14'2 5.3
2017-Sep-13 00:29N 29°45' W 095°11'3 5.6
2017-Sep-13 00:00N 29°44' W 095°08'3 4.6
2017-Sep-12 23:27N 29°45' W 095°06'1 0.3
2017-Sep-12 21:26N 29°46' W 095°05'2 4.9
2017-Sep-12 21:00N 29°45' W 095°04'2 4.8
2017-Sep-12 20:30N 29°43' W 095°01'2 4.3
2017-Sep-12 20:00N 29°42' W 094°60'2 4.8
2017-Sep-12 19:30N 29°40' W 094°58'3 5.6
2017-Sep-12 19:00N 29°37' W 094°57'3 5.7
2017-Sep-12 18:30N 29°34' W 094°56'3 5.7
2017-Sep-12 18:00N 29°32' W 094°54'  

Dump ship's entire track history